createdAt,value
2022-10-10T09:09:42.820Z,99.90
2022-10-10T09:12:22.145Z,99.90
2022-10-10T09:15:02.195Z,99.90
2022-10-10T09:17:39.942Z,99.90
2022-10-10T09:20:32.001Z,99.90
2022-10-10T09:23:05.260Z,99.90
2022-10-10T09:25:41.305Z,99.90
2022-10-10T09:28:18.274Z,99.90
2022-10-10T09:30:54.109Z,99.90
2022-10-10T09:33:30.731Z,99.90
2022-10-10T09:36:02.988Z,99.90
2022-10-10T09:38:40.410Z,99.90
2022-10-10T09:41:20.606Z,99.90
2022-10-10T09:43:49.258Z,99.90
2022-10-10T09:46:17.701Z,99.90
2022-10-10T09:48:46.097Z,99.90
2022-10-10T09:51:17.251Z,99.90
2022-10-10T09:53:47.644Z,99.90
2022-10-10T09:56:21.439Z,99.90
2022-10-10T09:58:51.661Z,99.90
2022-10-10T10:01:23.985Z,99.90
2022-10-10T10:04:29.034Z,99.90
2022-10-10T10:07:08.943Z,99.90
2022-10-10T10:09:37.385Z,99.90
2022-10-10T10:12:07.453Z,99.90
2022-10-10T10:14:39.315Z,99.90
2022-10-10T10:17:11.074Z,99.90
2022-10-10T10:19:42.414Z,99.90
2022-10-10T10:22:27.271Z,99.90
2022-10-10T10:24:56.421Z,99.90
2022-10-10T10:27:28.590Z,99.90
2022-10-10T10:29:59.044Z,99.90
2022-10-10T10:32:49.833Z,99.90
2022-10-10T10:35:26.327Z,99.90
2022-10-10T10:38:27.925Z,99.90
2022-10-10T10:41:06.646Z,99.90
2022-10-10T10:43:50.064Z,99.90
2022-10-10T10:46:35.270Z,99.90
2022-10-10T10:49:11.513Z,99.90
2022-10-10T10:52:22.333Z,99.90
2022-10-10T10:55:24.795Z,99.90
2022-10-10T11:01:44.844Z,99.90
2022-10-10T11:05:22.860Z,99.80
2022-10-10T11:08:00.807Z,99.70
2022-10-10T11:10:40.394Z,99.60
2022-10-10T11:13:20.801Z,99.70
2022-10-10T11:16:06.165Z,99.50
2022-10-10T11:18:43.928Z,99.60
2022-10-10T11:21:19.456Z,99.40
2022-10-10T11:23:56.464Z,99.30
2022-10-10T11:26:29.890Z,99.30
2022-10-10T11:29:05.662Z,99.20
2022-10-10T11:31:40.424Z,99.10
2022-10-10T11:34:18.580Z,99.40
2022-10-10T11:36:48.171Z,99.30
2022-10-10T11:39:23.814Z,99.10
2022-10-10T11:41:59.241Z,99.00
2022-10-10T11:44:33.206Z,98.90
2022-10-10T11:47:13.523Z,98.90
2022-10-10T11:49:53.816Z,98.90
2022-10-10T11:52:34.020Z,98.70
2022-10-10T11:55:12.167Z,98.80
2022-10-10T11:57:47.710Z,98.80
2022-10-10T12:00:18.327Z,98.70
2022-10-10T12:02:48.428Z,98.80
2022-10-10T12:05:25.270Z,98.50
2022-10-10T12:08:08.984Z,98.50
2022-10-10T12:10:45.215Z,98.40
2022-10-10T12:13:29.159Z,98.40
2022-10-10T12:16:00.740Z,98.50
2022-10-10T12:18:33.067Z,98.40
2022-10-10T12:21:09.847Z,98.20
2022-10-10T12:23:39.057Z,98.20
2022-10-10T12:26:07.538Z,98.10
2022-10-10T12:28:38.937Z,97.80
2022-10-10T12:31:37.615Z,98.00
2022-10-10T12:34:19.220Z,98.00
2022-10-10T12:37:22.804Z,97.80
2022-10-10T12:40:23.303Z,97.80
2022-10-10T12:43:23.886Z,97.90
2022-10-10T12:46:09.939Z,97.70
2022-10-10T12:48:40.859Z,97.50
2022-10-10T12:51:22.473Z,97.20
2022-10-10T12:53:57.830Z,97.30
2022-10-10T12:56:37.929Z,97.10
2022-10-10T12:59:14.382Z,97.40
2022-10-10T13:01:48.697Z,97.20
2022-10-10T13:04:18.781Z,96.90
2022-10-10T13:06:49.529Z,96.90
2022-10-10T13:09:23.298Z,96.90
2022-10-10T13:11:58.202Z,96.80
2022-10-10T13:14:29.522Z,97.00
2022-10-10T13:16:58.178Z,96.80
2022-10-10T13:19:31.830Z,96.70
2022-10-10T13:22:00.504Z,96.40
2022-10-10T13:24:33.900Z,96.30
2022-10-10T13:27:03.103Z,96.60
2022-10-10T13:29:35.009Z,96.60
2022-10-10T13:32:08.514Z,96.80
2022-10-10T13:34:41.307Z,96.60
2022-10-10T13:37:16.437Z,96.80
2022-10-10T13:39:47.077Z,97.00
2022-10-10T13:42:35.457Z,96.80
2022-10-10T13:45:31.977Z,96.70
2022-10-10T13:48:22.129Z,96.80
2022-10-10T13:51:08.427Z,97.10
2022-10-10T13:53:48.124Z,96.90
2022-10-10T13:56:25.577Z,97.00
2022-10-10T13:58:57.439Z,96.90
2022-10-10T14:01:39.547Z,96.70
2022-10-10T14:04:22.615Z,96.80
2022-10-10T14:07:06.027Z,96.80
2022-10-10T14:09:39.935Z,96.30
2022-10-10T14:12:18.719Z,96.50
2022-10-10T14:14:51.696Z,96.70
2022-10-10T14:17:20.425Z,96.70
2022-10-10T14:19:50.568Z,96.20
2022-10-10T14:22:20.277Z,96.80
2022-10-10T14:24:49.047Z,96.50
2022-10-10T14:27:26.622Z,96.50
2022-10-10T14:29:58.303Z,96.40
2022-10-10T14:32:27.721Z,96.80
2022-10-10T14:34:56.335Z,96.10
2022-10-10T14:37:27.756Z,96.10
2022-10-10T14:39:57.214Z,96.00
2022-10-10T14:42:28.401Z,96.20
2022-10-10T14:44:57.103Z,96.20
2022-10-10T14:47:26.530Z,95.80
2022-10-10T14:49:57.487Z,96.00
2022-10-10T14:52:26.197Z,95.90
2022-10-10T14:54:54.868Z,95.80
2022-10-10T14:57:23.466Z,95.80
2022-10-10T14:59:53.475Z,95.70
2022-10-10T15:02:23.890Z,95.60
2022-10-10T15:04:52.540Z,95.80
2022-10-10T15:07:48.379Z,95.70
2022-10-10T15:10:34.299Z,95.70
2022-10-10T15:13:03.956Z,96.00
2022-10-10T15:15:33.734Z,96.10
2022-10-10T15:18:02.596Z,96.20
2022-10-10T15:20:33.880Z,96.10
2022-10-10T15:23:04.858Z,96.00
2022-10-10T15:25:34.399Z,96.40
2022-10-10T15:28:04.014Z,96.40
2022-10-10T15:30:33.806Z,97.00
2022-10-10T15:33:02.384Z,96.60
2022-10-10T15:35:44.883Z,96.70
2022-10-10T15:38:19.155Z,96.70
2022-10-10T15:40:57.836Z,96.70
2022-10-10T15:43:26.523Z,96.90
2022-10-10T15:45:58.665Z,96.80
2022-10-10T15:48:27.435Z,96.90
2022-10-10T15:50:55.785Z,96.90
2022-10-10T15:53:24.179Z,96.90
2022-10-10T15:55:52.579Z,96.70
2022-10-10T15:58:21.191Z,96.90
2022-10-10T16:00:49.632Z,96.90
2022-10-10T16:03:19.482Z,96.90
2022-10-10T16:05:47.880Z,96.80
2022-10-10T16:08:22.860Z,96.80
2022-10-10T16:10:51.357Z,96.90
2022-10-10T16:13:19.827Z,96.90
2022-10-10T16:15:58.199Z,96.80
2022-10-10T16:18:28.018Z,97.20
2022-10-10T16:20:59.390Z,96.90
2022-10-10T16:23:28.608Z,96.90
2022-10-10T16:26:03.335Z,97.00
2022-10-10T16:28:32.292Z,97.20
2022-10-10T16:31:03.916Z,97.10
2022-10-10T16:33:35.014Z,97.30
2022-10-10T16:36:09.292Z,97.30
2022-10-10T16:38:40.028Z,97.30
2022-10-10T16:41:35.190Z,97.10
2022-10-10T16:44:02.889Z,97.30
2022-10-10T16:46:31.498Z,97.20
2022-10-10T16:49:01.657Z,97.10
2022-10-10T16:51:31.572Z,96.90
2022-10-10T16:54:06.400Z,97.10
2022-10-10T16:56:35.673Z,97.30
2022-10-10T16:59:05.013Z,97.40
2022-10-10T17:01:33.548Z,97.60
2022-10-10T17:04:03.970Z,97.80
2022-10-10T17:06:37.503Z,97.50
2022-10-10T17:09:08.489Z,97.50
2022-10-10T17:11:37.530Z,97.80
2022-10-10T17:14:06.180Z,97.80
2022-10-10T17:17:06.848Z,97.50
2022-10-10T17:19:24.504Z,97.60
2022-10-10T17:21:53.039Z,97.70
2022-10-10T17:24:21.419Z,97.60
2022-10-10T17:26:49.918Z,97.90
2022-10-10T17:29:18.651Z,97.80
2022-10-10T17:31:47.236Z,98.00
2022-10-10T17:34:15.744Z,97.60
2022-10-10T17:36:45.510Z,97.70
2022-10-10T17:39:14.015Z,97.90
2022-10-10T17:41:42.473Z,97.80
2022-10-10T17:44:11.245Z,97.90
2022-10-10T17:46:40.446Z,97.80
2022-10-10T17:49:11.359Z,98.20
2022-10-10T17:51:41.550Z,98.50
2022-10-10T17:54:13.472Z,98.50
2022-10-10T17:56:44.562Z,98.70
2022-10-10T17:59:13.962Z,98.20
2022-10-10T18:01:42.423Z,98.50
2022-10-10T18:04:12.711Z,98.30
2022-10-10T18:06:41.517Z,98.90
2022-10-10T18:09:11.711Z,98.80
2022-10-10T18:11:40.377Z,98.90
2022-10-10T18:14:09.010Z,99.10
2022-10-10T18:16:38.025Z,99.00
2022-10-10T18:19:09.558Z,99.30
2022-10-10T18:21:38.059Z,99.60
2022-10-10T18:24:13.735Z,99.30
2022-10-10T18:26:42.172Z,99.40
2022-10-10T18:29:10.652Z,99.40
2022-10-10T18:31:39.751Z,99.50
2022-10-10T18:34:09.006Z,99.60
2022-10-10T18:36:39.268Z,99.90
2022-10-10T18:39:13.338Z,99.90
2022-10-10T18:41:41.868Z,99.80
2022-10-10T18:44:14.346Z,99.70
2022-10-10T18:46:42.864Z,99.90
2022-10-10T18:49:14.610Z,99.70
2022-10-10T18:51:44.560Z,99.90
2022-10-10T18:54:18.642Z,99.90
2022-10-10T18:56:48.397Z,99.90
2022-10-10T18:59:21.436Z,99.90
2022-10-10T19:01:52.537Z,99.90
2022-10-10T19:04:23.674Z,99.60
2022-10-10T19:06:57.647Z,99.90
2022-10-10T19:09:27.907Z,99.90
2022-10-10T19:11:56.458Z,99.90
2022-10-10T19:14:25.017Z,99.90
2022-10-10T19:16:53.409Z,99.90
2022-10-10T19:19:22.205Z,99.90
2022-10-10T19:21:51.073Z,99.90
2022-10-10T19:24:21.502Z,99.90
2022-10-10T19:26:57.051Z,99.90
2022-10-10T19:29:27.525Z,99.90
2022-10-10T19:31:56.254Z,99.90
2022-10-10T19:34:24.829Z,99.90
2022-10-10T19:36:53.656Z,99.90
2022-10-10T19:39:22.056Z,99.90
2022-10-10T19:41:50.703Z,99.90
2022-10-10T19:44:20.489Z,99.90
2022-10-10T19:46:48.892Z,99.90
2022-10-10T19:49:17.213Z,99.90
2022-10-10T19:51:45.789Z,99.90
2022-10-10T19:54:14.202Z,99.90
2022-10-10T19:56:42.584Z,99.90
2022-10-10T19:59:10.978Z,99.90
2022-10-10T20:01:40.800Z,99.90
2022-10-10T20:04:09.193Z,99.90
2022-10-10T20:06:37.583Z,99.90
2022-10-10T20:09:10.386Z,99.90
2022-10-10T20:11:40.246Z,99.90
2022-10-10T20:14:08.616Z,99.90
2022-10-10T20:16:37.132Z,99.90
2022-10-10T20:19:06.930Z,99.90
2022-10-10T20:21:36.060Z,99.90
2022-10-10T20:24:08.100Z,99.90
2022-10-10T20:26:37.005Z,99.90
2022-10-10T20:29:06.564Z,99.90
2022-10-10T20:31:36.923Z,99.90
2022-10-10T20:34:08.026Z,99.90
2022-10-10T20:36:37.589Z,99.90
2022-10-10T20:39:09.118Z,99.90
2022-10-10T20:41:39.287Z,99.90
2022-10-10T20:44:09.898Z,99.90
2022-10-10T20:46:41.959Z,99.90
2022-10-10T20:49:15.532Z,99.90
2022-10-10T20:51:48.554Z,99.90
2022-10-10T20:54:18.530Z,99.90
2022-10-10T20:56:48.561Z,99.90
2022-10-10T20:59:17.813Z,99.90
2022-10-10T21:01:46.691Z,99.90
2022-10-10T21:04:16.487Z,99.90
2022-10-10T21:06:45.254Z,99.90
2022-10-10T21:09:15.984Z,99.90
2022-10-10T21:11:48.655Z,99.90
2022-10-10T21:14:20.449Z,99.90
2022-10-10T21:16:50.669Z,99.90
2022-10-10T21:19:20.870Z,99.90
2022-10-10T21:21:49.889Z,99.90
2022-10-10T21:24:18.823Z,99.90
2022-10-10T21:26:49.198Z,99.90
2022-10-10T21:29:18.073Z,99.90
2022-10-10T21:31:46.753Z,99.90
2022-10-10T21:34:18.749Z,99.90
2022-10-10T21:36:48.862Z,99.90
2022-10-10T21:39:17.412Z,99.90
2022-10-10T21:41:46.667Z,99.90
2022-10-10T21:44:16.318Z,99.90
2022-10-10T21:46:45.644Z,99.90
2022-10-10T21:49:14.720Z,99.90
2022-10-10T21:51:46.558Z,99.90
2022-10-10T21:54:16.554Z,99.90
2022-10-10T21:56:45.469Z,99.90
2022-10-10T21:59:14.189Z,99.90
2022-10-10T22:01:44.275Z,99.90
2022-10-10T22:04:13.291Z,99.90
2022-10-10T22:06:41.827Z,99.90
2022-10-10T22:09:10.510Z,99.90
2022-10-10T22:11:40.626Z,99.90
2022-10-10T22:14:09.258Z,99.90
2022-10-10T22:16:37.915Z,99.90
2022-10-10T22:19:07.059Z,99.90
2022-10-10T22:21:36.286Z,99.90
2022-10-10T22:24:08.567Z,99.90
2022-10-10T22:26:39.077Z,99.90
2022-10-10T22:29:07.526Z,99.90
2022-10-10T22:31:37.910Z,99.90
2022-10-10T22:34:07.932Z,99.90
2022-10-10T22:36:36.502Z,99.90
2022-10-10T22:39:07.313Z,99.90
2022-10-10T22:41:35.935Z,99.90
2022-10-10T22:44:06.403Z,99.90
2022-10-10T22:46:35.208Z,99.90
2022-10-10T22:49:04.396Z,99.90
2022-10-10T22:51:32.918Z,99.90
2022-10-10T22:54:01.377Z,99.90
2022-10-10T22:56:29.906Z,99.90
2022-10-10T22:58:58.447Z,99.90
2022-10-10T23:01:28.535Z,99.90
2022-10-10T23:04:00.574Z,99.90
2022-10-10T23:06:29.440Z,99.90
2022-10-10T23:08:58.237Z,99.90
2022-10-10T23:11:26.739Z,99.90
2022-10-10T23:13:55.234Z,99.90
2022-10-10T23:16:23.721Z,99.90
2022-10-10T23:18:53.551Z,99.90
2022-10-10T23:21:22.304Z,99.90
2022-10-10T23:23:50.852Z,99.90
2022-10-10T23:26:22.943Z,99.90
2022-10-10T23:28:51.848Z,99.90
2022-10-10T23:31:20.402Z,99.90
2022-10-10T23:33:48.978Z,99.90
2022-10-10T23:36:18.972Z,99.90
2022-10-10T23:38:47.686Z,99.90
2022-10-10T23:41:16.238Z,99.90
2022-10-10T23:43:44.723Z,99.90
2022-10-10T23:46:13.996Z,99.90
2022-10-10T23:48:42.516Z,99.90
2022-10-10T23:51:11.369Z,99.90
2022-10-10T23:53:41.216Z,99.90
2022-10-10T23:56:09.810Z,99.90
2022-10-10T23:58:38.287Z,99.90
